createdAt,value
2022-09-07T00:00:53.872Z,37.29
2022-09-07T00:03:20.838Z,37.53
2022-09-07T00:05:49.433Z,37.49
2022-09-07T00:08:18.147Z,37.98
2022-09-07T00:11:02.361Z,37.76
2022-09-07T00:13:33.494Z,37.92
2022-09-07T00:16:04.663Z,38.06
2022-09-07T00:18:31.650Z,37.79
2022-09-07T00:21:00.696Z,38.04
2022-09-07T00:23:28.819Z,38.05
2022-09-07T00:26:00.553Z,38.22
2022-09-07T00:28:27.189Z,37.90
2022-09-07T00:30:53.717Z,38.30
2022-09-07T00:33:20.272Z,38.45
2022-09-07T00:35:46.780Z,38.58
2022-09-07T00:38:13.542Z,38.94
2022-09-07T00:40:40.344Z,38.94
2022-09-07T00:43:07.768Z,38.97
2022-09-07T00:45:34.268Z,38.86
2022-09-07T00:48:15.052Z,39.24
2022-09-07T00:50:46.361Z,39.24
2022-09-07T00:53:18.933Z,39.31
2022-09-07T00:55:48.202Z,39.30
2022-09-07T00:58:15.939Z,39.35
2022-09-07T01:00:45.989Z,39.81
2022-09-07T01:03:16.253Z,39.82
2022-09-07T01:09:25.621Z,39.61
2022-09-07T01:11:54.726Z,40.06
2022-09-07T01:14:26.564Z,39.68
2022-09-07T01:17:09.690Z,39.87
2022-09-07T01:20:00.550Z,40.08
2022-09-07T01:23:11.679Z,39.96
2022-09-07T01:26:13.666Z,40.22
2022-09-07T01:28:40.966Z,40.10
2022-09-07T01:31:28.491Z,40.55
2022-09-07T01:34:05.386Z,40.59
2022-09-07T01:36:40.359Z,40.64
2022-09-07T01:39:07.087Z,40.56
2022-09-07T01:41:49.050Z,40.94
2022-09-07T01:44:25.009Z,41.25
2022-09-07T01:46:57.198Z,41.41
2022-09-07T01:49:41.080Z,41.24
2022-09-07T01:52:14.668Z,41.64
2022-09-07T01:55:10.701Z,41.37
2022-09-07T01:57:45.193Z,41.64
2022-09-07T02:00:18.486Z,41.62
2022-09-07T02:02:51.235Z,41.90
2022-09-07T02:05:23.808Z,41.55
2022-09-07T02:07:56.222Z,41.92
2022-09-07T02:10:40.480Z,42.25
2022-09-07T02:13:16.465Z,41.75
2022-09-07T02:15:58.238Z,41.78
2022-09-07T02:18:26.710Z,41.84
2022-09-07T02:20:56.042Z,42.03
2022-09-07T02:23:28.150Z,42.29
2022-09-07T02:26:01.294Z,41.85
2022-09-07T02:28:34.641Z,41.84
2022-09-07T02:31:01.745Z,41.57
2022-09-07T02:33:29.216Z,41.98
2022-09-07T02:35:55.872Z,42.16
2022-09-07T02:38:23.030Z,42.56
2022-09-07T02:40:56.775Z,42.67
2022-09-07T02:43:25.311Z,43.28
2022-09-07T02:45:57.756Z,43.21
2022-09-07T02:48:24.257Z,43.27
2022-09-07T02:51:13.850Z,43.26
2022-09-07T02:53:59.867Z,43.10
2022-09-07T02:56:46.141Z,43.71
2022-09-07T02:59:56.423Z,43.37
2022-09-07T03:02:34.076Z,43.54
2022-09-07T03:05:20.899Z,43.44
2022-09-07T03:08:05.698Z,43.63
2022-09-07T03:10:32.987Z,43.27
2022-09-07T03:12:59.482Z,43.63
2022-09-07T03:15:27.554Z,43.71
2022-09-07T03:17:54.162Z,43.66
2022-09-07T03:20:22.156Z,43.54
2022-09-07T03:22:50.334Z,43.71
2022-09-07T03:25:17.692Z,43.73
2022-09-07T03:27:44.368Z,43.49
2022-09-07T03:30:12.728Z,44.03
2022-09-07T03:32:39.534Z,44.17
2022-09-07T03:35:07.482Z,44.58
2022-09-07T03:37:36.693Z,44.93
2022-09-07T03:40:09.333Z,45.03
2022-09-07T03:42:37.676Z,45.35
2022-09-07T03:45:05.314Z,45.83
2022-09-07T03:47:34.131Z,45.56
2022-09-07T03:50:00.663Z,45.49
2022-09-07T03:52:27.228Z,45.29
2022-09-07T03:54:53.759Z,45.60
2022-09-07T03:57:20.339Z,45.62
2022-09-07T03:59:47.150Z,45.83
2022-09-07T04:02:14.304Z,46.05
2022-09-07T04:04:42.493Z,45.86
2022-09-07T04:07:09.402Z,45.72
2022-09-07T04:09:35.947Z,46.22
2022-09-07T04:12:02.930Z,46.31
2022-09-07T04:14:29.469Z,45.70
2022-09-07T04:16:56.396Z,45.69
2022-09-07T04:19:23.591Z,45.78
2022-09-07T04:21:50.145Z,45.77
2022-09-07T04:24:17.975Z,45.75
2022-09-07T04:26:45.144Z,45.83
2022-09-07T04:29:13.162Z,45.75
2022-09-07T04:31:39.999Z,45.85
2022-09-07T04:34:06.879Z,46.04
2022-09-07T04:36:33.822Z,45.96
2022-09-07T04:39:02.878Z,45.99
2022-09-07T04:41:31.701Z,45.87
2022-09-07T04:44:00.574Z,46.11
2022-09-07T04:46:35.717Z,45.83
2022-09-07T04:49:08.322Z,45.85
2022-09-07T04:51:36.425Z,46.07
2022-09-07T04:54:04.062Z,46.33
2022-09-07T04:56:31.647Z,46.07
2022-09-07T04:58:59.221Z,46.15
2022-09-07T05:01:26.237Z,46.34
2022-09-07T05:03:53.317Z,45.96
2022-09-07T05:06:21.790Z,46.33
2022-09-07T05:08:53.758Z,46.06
2022-09-07T05:11:28.424Z,46.82
2022-09-07T05:13:56.853Z,46.85
2022-09-07T05:16:24.588Z,46.30
2022-09-07T05:18:53.451Z,46.59
2022-09-07T05:21:23.035Z,46.34
2022-09-07T05:23:51.437Z,46.27
2022-09-07T05:26:19.024Z,46.71
2022-09-07T05:28:46.062Z,46.46
2022-09-07T05:31:19.654Z,46.64
2022-09-07T05:36:39.148Z,47.05
2022-09-07T05:39:06.902Z,47.18
2022-09-07T05:41:33.792Z,46.69
2022-09-07T05:46:47.324Z,46.24
2022-09-07T05:49:13.887Z,46.52
2022-09-07T05:51:41.121Z,46.42
2022-09-07T05:54:07.659Z,46.63
2022-09-07T05:56:36.001Z,46.60
2022-09-07T05:59:03.317Z,45.94
2022-09-07T06:01:29.945Z,46.31
2022-09-07T06:03:56.502Z,45.73
2022-09-07T06:06:23.342Z,45.83
2022-09-07T06:08:52.446Z,45.67
2022-09-07T06:11:21.468Z,45.26
2022-09-07T06:13:48.650Z,45.33
2022-09-07T06:16:16.171Z,45.15
2022-09-07T06:18:45.303Z,45.18
2022-09-07T06:21:12.761Z,45.43
2022-09-07T06:23:41.124Z,45.07
2022-09-07T06:26:09.120Z,44.14
2022-09-07T06:28:38.179Z,43.60
2022-09-07T06:31:15.650Z,43.50
2022-09-07T06:33:43.394Z,42.99
2022-09-07T06:36:12.727Z,42.62
2022-09-07T06:38:40.255Z,43.12
2022-09-07T06:44:02.990Z,43.64
2022-09-07T06:49:16.043Z,43.36
2022-09-07T06:51:42.570Z,44.39
2022-09-07T06:56:56.318Z,43.93
2022-09-07T06:59:22.808Z,44.25
2022-09-07T07:01:49.358Z,44.00
2022-09-07T07:04:15.926Z,43.29
2022-09-07T07:06:42.472Z,42.37
2022-09-07T07:09:12.243Z,42.44
2022-09-07T07:11:38.832Z,42.38
2022-09-07T07:14:05.398Z,41.28
2022-09-07T07:16:32.078Z,40.42
2022-09-07T07:18:58.654Z,40.51
2022-09-07T07:21:25.223Z,39.91
2022-09-07T07:23:53.068Z,40.45
2022-09-07T07:26:22.139Z,38.76
2022-09-07T07:29:06.284Z,38.57
2022-09-07T07:31:33.739Z,37.20
2022-09-07T07:34:00.398Z,37.35
2022-09-07T07:36:28.161Z,35.92
2022-09-07T07:44:14.446Z,37.88
2022-09-07T07:46:41.058Z,38.55
2022-09-07T07:49:07.573Z,38.22
2022-09-07T07:52:49.782Z,38.51
2022-09-07T07:54:20.554Z,38.38
2022-09-07T07:56:47.195Z,36.96
2022-09-07T07:59:15.739Z,38.54
2022-09-07T08:01:43.740Z,37.59
2022-09-07T08:04:10.396Z,36.31
2022-09-07T08:06:37.747Z,36.85
2022-09-07T08:09:04.196Z,36.04
2022-09-07T08:11:31.220Z,35.01
2022-09-07T08:14:00.186Z,34.89
2022-09-07T08:16:26.698Z,33.50
2022-09-07T08:18:53.692Z,33.35
2022-09-07T08:21:20.140Z,32.31
2022-09-07T08:23:46.631Z,32.29
2022-09-07T08:26:13.184Z,33.43
2022-09-07T08:28:41.773Z,32.42
2022-09-07T08:31:11.246Z,32.14
2022-09-07T08:33:38.446Z,32.27
2022-09-07T08:36:12.510Z,32.41
2022-09-07T08:38:39.475Z,32.87
2022-09-07T08:41:34.780Z,32.17
2022-09-07T08:44:13.217Z,34.33
2022-09-07T08:46:47.325Z,34.60
2022-09-07T08:49:21.502Z,34.12
2022-09-07T08:51:54.737Z,33.78
2022-09-07T08:54:21.160Z,34.91
2022-09-07T09:00:03.999Z,33.49
2022-09-07T09:02:33.706Z,33.56
2022-09-07T09:05:20.608Z,33.41
2022-09-07T09:07:49.967Z,32.13
2022-09-07T09:10:31.305Z,32.51
2022-09-07T09:13:18.857Z,31.48
2022-09-07T09:15:52.200Z,32.34
2022-09-07T09:19:05.860Z,32.34
2022-09-07T09:21:35.214Z,31.49
2022-09-07T09:24:13.451Z,31.63
2022-09-07T09:26:42.944Z,32.33
2022-09-07T09:29:14.113Z,31.88
2022-09-07T09:31:40.654Z,31.62
2022-09-07T09:34:11.183Z,31.36
2022-09-07T09:36:48.320Z,30.11
2022-09-07T09:39:28.933Z,30.09
2022-09-07T09:41:58.330Z,30.02
2022-09-07T09:44:31.226Z,29.01
2022-09-07T09:49:45.078Z,29.62
2022-09-07T09:52:29.563Z,29.89
2022-09-07T09:55:03.397Z,30.35
2022-09-07T10:03:59.731Z,31.48
2022-09-07T10:06:28.857Z,31.04
2022-09-07T10:09:02.128Z,31.48
2022-09-07T10:14:47.009Z,32.53
2022-09-07T10:17:42.338Z,33.42
2022-09-07T10:20:18.765Z,34.08
2022-09-07T10:22:51.670Z,34.35
2022-09-07T10:25:36.833Z,35.14
2022-09-07T10:28:09.972Z,36.72
2022-09-07T10:31:04.284Z,37.00
2022-09-07T10:37:01.724Z,37.36
2022-09-07T10:39:35.733Z,37.73
2022-09-07T10:42:10.340Z,37.89
2022-09-07T10:44:58.369Z,38.32
2022-09-07T10:48:01.684Z,39.10
2022-09-07T10:50:36.626Z,38.97
2022-09-07T10:53:41.470Z,39.68
2022-09-07T10:56:18.184Z,39.08
2022-09-07T10:59:18.807Z,39.86
2022-09-07T11:02:13.911Z,40.05
2022-09-07T11:05:03.853Z,39.74
2022-09-07T11:07:42.621Z,40.56
2022-09-07T11:10:30.844Z,40.47
2022-09-07T11:13:00.245Z,39.85
2022-09-07T11:15:52.692Z,39.94
2022-09-07T11:18:28.143Z,39.34
2022-09-07T11:20:58.883Z,38.88
2022-09-07T11:23:43.572Z,38.72
2022-09-07T11:26:30.386Z,38.47
2022-09-07T11:32:01.838Z,38.90
2022-09-07T11:34:33.766Z,38.99
2022-09-07T11:37:10.821Z,39.09
2022-09-07T11:39:58.752Z,38.94
2022-09-07T11:42:44.978Z,38.63
2022-09-07T11:45:19.132Z,39.28
2022-09-07T11:48:05.788Z,40.95
2022-09-07T11:50:36.673Z,41.12
2022-09-07T11:53:06.629Z,40.24
2022-09-07T11:55:38.441Z,40.08
2022-09-07T11:58:16.978Z,39.42
2022-09-07T12:00:49.778Z,38.83
2022-09-07T12:03:35.234Z,37.50
2022-09-07T12:06:43.229Z,37.65
2022-09-07T12:09:36.035Z,37.18
2022-09-07T12:12:08.435Z,37.44
2022-09-07T12:14:48.169Z,36.91
2022-09-07T12:17:44.019Z,36.55
2022-09-07T12:20:17.853Z,37.18
2022-09-07T12:23:05.799Z,38.25
2022-09-07T12:25:34.174Z,38.31
2022-09-07T12:28:01.152Z,37.76
2022-09-07T12:30:29.061Z,38.15
2022-09-07T12:32:57.045Z,39.37
2022-09-07T12:35:30.019Z,39.07
2022-09-07T12:37:58.233Z,38.51
2022-09-07T12:40:29.754Z,39.00
2022-09-07T12:43:14.411Z,39.01
2022-09-07T12:45:40.853Z,39.26
2022-09-07T12:48:13.289Z,39.35
2022-09-07T12:51:03.186Z,39.30
2022-09-07T12:54:19.197Z,39.56
2022-09-07T13:00:18.412Z,39.27
2022-09-07T13:03:00.266Z,40.17
2022-09-07T13:06:03.766Z,39.60
2022-09-07T13:08:52.098Z,39.83
2022-09-07T13:11:21.565Z,39.79
2022-09-07T13:14:17.486Z,40.58
2022-09-07T13:19:50.755Z,41.30
2022-09-07T13:22:29.110Z,41.52
2022-09-07T13:24:59.480Z,41.88
2022-09-07T13:27:51.217Z,40.77
2022-09-07T13:30:23.973Z,41.00
2022-09-07T13:35:37.494Z,40.89
2022-09-07T13:38:04.848Z,40.95
2022-09-07T13:40:39.229Z,40.91
2022-09-07T13:43:12.560Z,40.95
2022-09-07T13:45:54.762Z,40.24
2022-09-07T13:48:42.858Z,41.11
2022-09-07T13:51:29.101Z,40.93
2022-09-07T13:54:08.478Z,41.23
2022-09-07T13:57:03.060Z,41.14
2022-09-07T13:59:33.468Z,41.01
2022-09-07T14:02:00.671Z,40.27
2022-09-07T14:04:34.822Z,40.87
2022-09-07T14:07:15.413Z,41.85
2022-09-07T14:09:42.327Z,42.26
2022-09-07T14:12:20.389Z,42.39
2022-09-07T14:15:09.266Z,41.52
2022-09-07T14:17:36.234Z,41.83
2022-09-07T14:20:03.809Z,41.13
2022-09-07T14:22:35.190Z,41.89
2022-09-07T14:25:04.484Z,42.56
2022-09-07T14:27:42.920Z,42.13
2022-09-07T14:30:28.030Z,42.69
2022-09-07T14:33:13.353Z,41.72
2022-09-07T14:35:41.247Z,41.16
2022-09-07T14:39:03.958Z,41.65
2022-09-07T14:41:11.973Z,41.30
2022-09-07T14:43:50.718Z,40.86
2022-09-07T14:46:22.329Z,41.37
2022-09-07T14:48:52.130Z,40.87
2022-09-07T14:51:36.136Z,40.89
2022-09-07T14:54:06.102Z,41.10
2022-09-07T14:56:41.224Z,40.65
2022-09-07T14:59:33.036Z,41.61
2022-09-07T15:02:17.904Z,42.46
2022-09-07T15:04:49.860Z,42.17
2022-09-07T15:07:29.441Z,41.58
2022-09-07T15:09:56.030Z,41.54
2022-09-07T15:12:38.225Z,41.66
2022-09-07T15:15:24.430Z,42.35
2022-09-07T15:17:53.176Z,41.53
2022-09-07T15:20:34.953Z,41.12
2022-09-07T15:23:04.879Z,41.27
2022-09-07T15:25:32.668Z,40.99
2022-09-07T15:27:59.214Z,41.56
2022-09-07T15:30:27.242Z,41.69
2022-09-07T15:32:57.364Z,41.88
2022-09-07T15:35:24.531Z,42.03
2022-09-07T15:38:59.313Z,42.32
2022-09-07T15:41:10.535Z,42.14
2022-09-07T15:43:30.601Z,42.41
2022-09-07T15:45:57.289Z,42.42
2022-09-07T15:48:25.224Z,41.88
2022-09-07T15:51:00.231Z,41.37
2022-09-07T15:56:14.071Z,41.37
2022-09-07T15:58:43.187Z,41.56
2022-09-07T16:03:59.001Z,41.47
2022-09-07T16:06:26.672Z,41.83
2022-09-07T16:08:53.743Z,41.58
2022-09-07T16:11:25.762Z,41.64
2022-09-07T16:14:02.822Z,41.35
2022-09-07T16:19:22.215Z,41.44
2022-09-07T16:21:48.677Z,41.76
2022-09-07T16:24:16.213Z,41.59
2022-09-07T16:26:42.730Z,41.82
2022-09-07T16:29:09.213Z,41.61
2022-09-07T16:31:36.052Z,41.77
2022-09-07T16:34:03.401Z,41.57
2022-09-07T16:36:30.668Z,41.95
2022-09-07T16:39:00.258Z,41.96
2022-09-07T16:41:31.716Z,41.44
2022-09-07T16:43:58.623Z,41.54
2022-09-07T16:46:28.311Z,41.49
2022-09-07T16:48:55.175Z,41.59
2022-09-07T16:51:22.890Z,42.03
2022-09-07T16:53:51.677Z,41.56
2022-09-07T16:56:20.319Z,41.80
2022-09-07T16:58:50.046Z,41.92
2022-09-07T17:01:19.037Z,41.83
2022-09-07T17:03:45.912Z,41.65
2022-09-07T17:06:14.318Z,42.02
2022-09-07T17:08:42.205Z,42.04
2022-09-07T17:11:12.799Z,41.69
2022-09-07T17:13:41.042Z,42.41
2022-09-07T17:16:10.537Z,41.98
2022-09-07T17:21:24.438Z,42.35
2022-09-07T17:23:55.586Z,42.86
2022-09-07T17:26:23.646Z,43.26
2022-09-07T17:28:54.695Z,43.86
2022-09-07T17:34:14.498Z,44.25
2022-09-07T17:36:41.024Z,44.59
2022-09-07T17:39:16.779Z,44.81
2022-09-07T17:41:45.113Z,44.84
2022-09-07T17:44:11.624Z,43.72
2022-09-07T17:46:38.043Z,43.56
2022-09-07T17:49:06.968Z,44.07
2022-09-07T17:51:33.416Z,43.54
2022-09-07T17:54:09.555Z,43.84
2022-09-07T17:56:37.395Z,44.28
2022-09-07T18:01:50.744Z,45.14
2022-09-07T18:04:17.442Z,45.99
2022-09-07T18:06:43.918Z,46.13
2022-09-07T18:09:11.284Z,47.02
2022-09-07T18:11:46.873Z,46.82
2022-09-07T18:14:14.564Z,46.67
2022-09-07T18:16:42.687Z,47.42
2022-09-07T18:19:11.791Z,47.73
2022-09-07T18:21:38.444Z,47.84
2022-09-07T18:24:16.607Z,48.14
2022-09-07T18:26:43.764Z,48.85
2022-09-07T18:29:27.285Z,49.00
2022-09-07T18:31:55.275Z,49.37
2022-09-07T18:34:22.335Z,49.29
2022-09-07T18:36:48.809Z,49.47
2022-09-07T18:39:15.282Z,50.02
2022-09-07T18:41:42.194Z,49.88
2022-09-07T18:46:55.823Z,49.89
2022-09-07T18:49:22.287Z,50.06
2022-09-07T18:54:35.211Z,50.97
2022-09-07T18:57:01.739Z,50.74
2022-09-07T18:59:29.564Z,50.86
2022-09-07T19:02:00.151Z,50.82
2022-09-07T19:05:49.526Z,50.65
2022-09-07T19:07:17.448Z,50.71
2022-09-07T19:09:43.938Z,51.32
2022-09-07T19:12:10.448Z,51.71
2022-09-07T19:14:36.912Z,51.37
2022-09-07T19:17:03.530Z,51.80
2022-09-07T19:19:30.204Z,52.04
2022-09-07T19:21:57.796Z,51.39
2022-09-07T19:24:25.649Z,51.30
2022-09-07T19:26:53.911Z,50.97
2022-09-07T19:29:23.582Z,50.49
2022-09-07T19:32:06.693Z,50.16
2022-09-07T19:34:34.891Z,49.58
2022-09-07T19:37:01.837Z,49.59
2022-09-07T19:39:28.781Z,49.23
2022-09-07T19:41:55.511Z,49.66
2022-09-07T19:44:22.043Z,49.84
2022-09-07T19:46:49.093Z,50.18
2022-09-07T19:49:16.115Z,49.92
2022-09-07T19:51:42.896Z,49.45
2022-09-07T19:54:11.058Z,49.19
2022-09-07T19:56:42.728Z,49.16
2022-09-07T19:59:09.465Z,48.23
2022-09-07T20:01:37.634Z,47.90
2022-09-07T20:04:07.534Z,48.13
2022-09-07T20:06:34.905Z,47.92
2022-09-07T20:09:01.779Z,47.69
2022-09-07T20:11:28.929Z,47.70
2022-09-07T20:13:57.019Z,47.67
2022-09-07T20:16:24.556Z,47.72
2022-09-07T20:18:51.448Z,47.56
2022-09-07T20:21:21.226Z,48.21
2022-09-07T20:23:48.286Z,48.12
2022-09-07T20:26:17.736Z,47.88
2022-09-07T20:28:44.658Z,47.78
2022-09-07T20:31:14.249Z,47.97
2022-09-07T20:33:45.751Z,47.43
2022-09-07T20:36:14.203Z,47.61
2022-09-07T20:38:43.114Z,47.57
2022-09-07T20:41:16.753Z,47.80
2022-09-07T20:43:43.309Z,47.70
2022-09-07T20:46:09.752Z,47.86
2022-09-07T20:48:37.315Z,47.97
2022-09-07T20:51:06.461Z,47.95
2022-09-07T20:53:32.936Z,48.51
2022-09-07T20:56:04.468Z,47.89
2022-09-07T20:58:31.271Z,48.15
2022-09-07T21:00:58.015Z,48.24
2022-09-07T21:03:25.074Z,48.29
2022-09-07T21:05:51.863Z,49.00
2022-09-07T21:08:18.451Z,49.43
2022-09-07T21:10:46.586Z,49.65
2022-09-07T21:13:14.498Z,49.44
2022-09-07T21:15:42.597Z,49.05
2022-09-07T21:18:15.157Z,49.66
2022-09-07T21:20:53.244Z,49.01
2022-09-07T21:23:31.304Z,49.03
2022-09-07T21:25:58.323Z,48.68
2022-09-07T21:28:25.873Z,48.44
2022-09-07T21:31:01.241Z,48.29
2022-09-07T21:33:29.039Z,48.21
2022-09-07T21:35:55.660Z,48.32
2022-09-07T21:38:22.651Z,48.30
2022-09-07T21:40:49.315Z,47.98
2022-09-07T21:43:16.770Z,47.76
2022-09-07T21:45:43.215Z,48.23
2022-09-07T21:48:09.798Z,47.76
2022-09-07T21:50:36.365Z,47.43
2022-09-07T21:53:02.942Z,47.58
2022-09-07T21:55:29.343Z,47.62
2022-09-07T21:57:55.824Z,47.74
2022-09-07T22:00:22.836Z,47.42
2022-09-07T22:02:51.022Z,47.32
2022-09-07T22:05:17.696Z,47.29
2022-09-07T22:07:44.329Z,47.03
2022-09-07T22:10:10.923Z,47.13
2022-09-07T22:12:37.338Z,46.97
2022-09-07T22:15:03.991Z,46.78
2022-09-07T22:17:31.449Z,46.71
2022-09-07T22:19:57.959Z,46.83
2022-09-07T22:22:24.412Z,47.13
2022-09-07T22:24:50.790Z,47.38
2022-09-07T22:27:17.194Z,47.12
2022-09-07T22:29:43.626Z,46.44
2022-09-07T22:32:10.079Z,46.66
2022-09-07T22:34:36.617Z,46.34
2022-09-07T22:37:03.050Z,46.32
2022-09-07T22:39:29.668Z,46.87
2022-09-07T22:41:56.181Z,46.70
2022-09-07T22:44:22.662Z,46.92
2022-09-07T22:46:49.245Z,46.60
2022-09-07T22:49:16.862Z,46.49
2022-09-07T22:51:44.411Z,46.95
2022-09-07T22:54:11.025Z,46.67
2022-09-07T22:56:38.987Z,47.31
2022-09-07T22:59:08.027Z,46.97
2022-09-07T23:01:35.906Z,47.38
2022-09-07T23:04:03.518Z,47.04
2022-09-07T23:06:33.396Z,46.95
2022-09-07T23:09:02.812Z,47.04
2022-09-07T23:11:29.769Z,47.16
2022-09-07T23:13:59.015Z,46.78
2022-09-07T23:16:27.334Z,46.38
2022-09-07T23:18:55.412Z,46.16
2022-09-07T23:21:21.926Z,46.05
2022-09-07T23:23:52.788Z,46.30
2022-09-07T23:26:20.738Z,46.38
2022-09-07T23:29:01.450Z,46.30
2022-09-07T23:31:29.650Z,46.90
2022-09-07T23:33:57.642Z,46.70
2022-09-07T23:36:24.770Z,46.81
2022-09-07T23:38:54.642Z,46.91
2022-09-07T23:41:21.784Z,46.82
2022-09-07T23:43:48.426Z,46.90
2022-09-07T23:46:15.711Z,47.18
2022-09-07T23:48:46.309Z,47.12
2022-09-07T23:51:13.694Z,46.60
2022-09-07T23:53:41.282Z,47.16
2022-09-07T23:56:08.078Z,47.07
2022-09-07T23:58:34.754Z,46.97
